Time;durP1;ratioP1;P1;durP2;ratioP2;P2;SDS_P1;SDS_P2;PMS_P1;PMS_P2;Temp;Humidity;BMP_temperature;BMP_pressure;BME280_temperature;BME280_humidity;BME280_pressure;Samples;Min_cycle;Max_cycle;Signal;HPM_P1;HPM_P2
2022/10/28 00:01:19;;;;;;;5.13;4.03;;;13.60;82.90;;;;;;5075235;28;20032;-59
2022/10/28 00:03:48;;;;;;;5.55;4.18;;;13.70;82.20;;;;;;5072558;28;20116;-60
2022/10/28 00:06:18;;;;;;;5.88;3.97;;;13.70;82.20;;;;;;5088929;28;20478;-59
2022/10/28 00:08:43;;;;;;;5.53;3.80;;;13.70;82.20;;;;;;5074313;28;20036;-59
2022/10/28 00:11:21;;;;;;;5.38;3.97;;;13.60;82.10;;;;;;5076445;28;20012;-59
2022/10/28 00:13:48;;;;;;;4.90;3.83;;;13.60;82.20;;;;;;5072891;28;20043;-59
2022/10/28 00:16:17;;;;;;;6.68;4.63;;;13.60;82.20;;;;;;5074606;28;20487;-59
2022/10/28 00:18:43;;;;;;;5.45;4.13;;;13.60;82.10;;;;;;5074516;28;20039;-59
2022/10/28 00:21:16;;;;;;;6.35;4.50;;;13.60;82.20;;;;;;5074614;28;20048;-59
2022/10/28 00:23:41;;;;;;;6.60;4.07;;;13.60;82.20;;;;;;5083271;28;20036;-61
2022/10/28 00:26:10;;;;;;;6.47;4.20;;;13.60;82.20;;;;;;5087820;28;20090;-60
2022/10/28 00:28:41;;;;;;;4.72;3.92;;;13.60;82.20;;;;;;5073500;28;20032;-59
2022/10/28 00:31:08;;;;;;;6.40;4.30;;;13.60;82.30;;;;;;5074263;28;20023;-59
2022/10/28 00:33:34;;;;;;;4.93;3.78;;;13.60;82.30;;;;;;5084817;28;20426;-58
2022/10/28 00:36:14;;;;;;;5.47;4.13;;;13.60;82.40;;;;;;5075615;28;20032;-60
2022/10/28 00:38:41;;;;;;;5.78;4.22;;;13.60;82.40;;;;;;5068186;28;20064;-58
2022/10/28 00:41:07;;;;;;;5.25;3.90;;;13.60;82.40;;;;;;5080716;28;20115;-60
2022/10/28 00:43:54;;;;;;;7.75;4.30;;;13.60;82.40;;;;;;5077542;28;20082;-59
2022/10/28 00:46:41;;;;;;;5.60;3.70;;;13.60;82.20;;;;;;5081778;28;20110;-58
2022/10/28 00:49:15;;;;;;;4.50;3.67;;;13.50;82.30;;;;;;5090031;28;20566;-59
2022/10/28 00:51:44;;;;;;;6.10;4.50;;;13.60;82.40;;;;;;5072545;28;20021;-60
2022/10/28 00:54:12;;;;;;;5.93;4.43;;;13.60;82.40;;;;;;5076430;28;20144;-59
2022/10/28 00:56:42;;;;;;;5.35;4.22;;;13.50;82.40;;;;;;5083518;28;20112;-60
2022/10/28 00:59:25;;;;;;;6.10;4.50;;;13.50;82.60;;;;;;5088665;28;20028;-59
2022/10/28 01:01:51;;;;;;;6.63;4.57;;;13.50;82.30;;;;;;5070569;28;20399;-60
2022/10/28 01:04:16;;;;;;;5.32;4.32;;;13.50;82.50;;;;;;5075759;28;20028;-58
2022/10/28 01:06:42;;;;;;;5.63;4.18;;;13.50;82.50;;;;;;5070219;28;20035;-58
2022/10/28 01:09:08;;;;;;;5.88;4.43;;;13.50;82.50;;;;;;5071769;28;20067;-60
2022/10/28 01:11:45;;;;;;;6.90;5.18;;;13.40;82.40;;;;;;5081346;28;20206;-60
2022/10/28 01:14:34;;;;;;;6.28;4.78;;;13.40;82.40;;;;;;5061058;28;20079;-60
2022/10/28 01:17:26;;;;;;;7.35;5.28;;;13.40;82.40;;;;;;5076372;28;20099;-59
2022/10/28 01:20:07;;;;;;;7.25;5.00;;;13.40;82.60;;;;;;5066686;28;20120;-60
2022/10/28 01:23:05;;;;;;;5.03;4.27;;;13.40;82.60;;;;;;5074176;28;20020;-59
2022/10/28 01:25:49;;;;;;;6.70;5.30;;;13.30;82.70;;;;;;5071829;28;20012;-58
2022/10/28 01:28:18;;;;;;;9.30;4.90;;;13.30;82.70;;;;;;5075125;28;20033;-58
2022/10/28 01:31:19;;;;;;;5.00;4.20;;;13.30;82.90;;;;;;5072508;28;20446;-59
2022/10/28 01:33:57;;;;;;;7.18;4.45;;;13.30;82.80;;;;;;5072140;28;20415;-60
2022/10/28 01:36:28;;;;;;;5.60;4.18;;;13.20;82.80;;;;;;5073377;28;20177;-59
2022/10/28 01:38:57;;;;;;;;;;;13.20;83.00;;;;;;5072357;28;20533;-59
2022/10/28 01:41:35;;;;;;;5.03;4.10;;;13.20;83.10;;;;;;5076915;28;19912;-59
2022/10/28 01:44:03;;;;;;;8.48;4.70;;;13.20;83.00;;;;;;5074777;28;20031;-60
2022/10/28 01:47:17;;;;;;;5.55;4.25;;;13.20;83.30;;;;;;5084000;28;20032;-59
2022/10/28 01:49:48;;;;;;;6.93;4.43;;;13.20;83.10;;;;;;5061572;28;20054;-58
2022/10/28 01:52:20;;;;;;;5.85;4.32;;;13.20;83.40;;;;;;5079645;28;20028;-58
2022/10/28 01:54:49;;;;;;;6.88;4.85;;;13.20;83.40;;;;;;5076611;28;20093;-60
2022/10/28 01:57:17;;;;;;;6.93;5.10;;;13.20;83.50;;;;;;5080802;28;20379;-59
2022/10/28 01:59:46;;;;;;;5.88;4.30;;;13.20;83.60;;;;;;5084334;28;20111;-59
2022/10/28 02:02:13;;;;;;;5.20;4.50;;;13.20;83.60;;;;;;5078122;28;20072;-60
2022/10/28 02:04:38;;;;;;;5.78;4.43;;;13.20;83.60;;;;;;5081596;28;20047;-58
2022/10/28 02:07:04;;;;;;;6.68;4.55;;;13.20;83.70;;;;;;5077714;28;20075;-59
2022/10/28 02:10:12;;;;;;;7.18;4.30;;;13.20;83.70;;;;;;5077750;28;20124;-59
2022/10/28 02:12:38;;;;;;;6.13;4.68;;;13.20;83.60;;;;;;5073762;28;20111;-58
2022/10/28 02:15:29;;;;;;;5.68;4.40;;;13.20;83.80;;;;;;5077343;28;20044;-59
2022/10/28 02:18:04;;;;;;;;;;;13.20;83.70;;;;;;5071230;28;20476;-60
2022/10/28 02:20:51;;;;;;;6.10;4.35;;;13.10;83.70;;;;;;5073599;28;20315;-58
2022/10/28 02:23:35;;;;;;;5.43;3.80;;;13.20;83.80;;;;;;5088656;28;20441;-60
2022/10/28 02:26:18;;;;;;;5.47;4.38;;;13.20;83.90;;;;;;5083994;28;20384;-58
2022/10/28 02:28:55;;;;;;;7.38;5.03;;;13.10;83.90;;;;;;5081742;28;20483;-60
2022/10/28 02:31:41;;;;;;;5.78;4.50;;;13.10;84.00;;;;;;5082842;28;20117;-59
2022/10/28 02:34:12;;;;;;;5.40;4.30;;;13.10;84.00;;;;;;5077608;28;20020;-59
2022/10/28 02:36:43;;;;;;;5.35;3.80;;;13.20;84.80;;;;;;5081193;28;20524;-60
2022/10/28 02:39:10;;;;;;;6.45;4.75;;;13.20;84.10;;;;;;5087145;28;20016;-58
2022/10/28 02:42:01;;;;;;;6.20;4.68;;;13.20;84.20;;;;;;5090638;28;20055;-59
2022/10/28 02:44:39;;;;;;;5.75;4.40;;;13.20;84.20;;;;;;5080971;28;20047;-60
2022/10/28 02:47:12;;;;;;;6.03;4.63;;;13.20;84.10;;;;;;5075516;28;20040;-58
2022/10/28 02:49:41;;;;;;;5.95;4.60;;;13.20;84.20;;;;;;5080360;28;20056;-58
2022/10/28 02:52:07;;;;;;;8.13;4.85;;;13.20;84.30;;;;;;5067862;28;20411;-59
2022/10/28 02:54:52;;;;;;;6.40;4.47;;;13.20;84.20;;;;;;5085309;28;20085;-58
2022/10/28 02:57:27;;;;;;;6.30;4.75;;;13.20;84.20;;;;;;5073350;28;20444;-59
2022/10/28 02:59:59;;;;;;;6.68;4.78;;;13.20;84.20;;;;;;5084600;28;20112;-58
2022/10/28 03:02:25;;;;;;;;;;;13.20;84.20;;;;;;5090063;28;20058;-60
2022/10/28 03:04:50;;;;;;;5.07;4.10;;;13.20;84.20;;;;;;5088818;28;19954;-59
2022/10/28 03:07:16;;;;;;;7.30;4.45;;;13.20;84.30;;;;;;5077331;28;20032;-59
2022/10/28 03:09:42;;;;;;;5.13;3.60;;;13.20;84.30;;;;;;5079184;28;20056;-59
2022/10/28 03:12:08;;;;;;;6.15;4.43;;;13.20;84.10;;;;;;5079071;28;20024;-59
2022/10/28 03:14:34;;;;;;;7.95;4.75;;;13.30;84.50;;;;;;5092031;28;20388;-60
2022/10/28 03:16:59;;;;;;;7.43;4.80;;;13.30;84.50;;;;;;5084846;28;20020;-59
2022/10/28 03:19:25;;;;;;;5.10;3.90;;;13.30;84.40;;;;;;5089134;28;20365;-58
2022/10/28 03:21:51;;;;;;;4.55;3.85;;;13.30;84.50;;;;;;5091234;28;20399;-59
2022/10/28 03:24:16;;;;;;;5.28;3.92;;;13.30;84.50;;;;;;5096097;28;20016;-59
2022/10/28 03:26:42;;;;;;;4.47;3.65;;;13.40;84.50;;;;;;5077570;28;20113;-59
2022/10/28 03:29:08;;;;;;;6.90;4.53;;;13.30;84.50;;;;;;5078176;28;20063;-59
2022/10/28 03:31:33;;;;;;;5.40;4.05;;;13.30;84.40;;;;;;5082623;28;20082;-59
2022/10/28 03:33:59;;;;;;;5.55;4.22;;;13.30;84.50;;;;;;5081392;28;20063;-59
2022/10/28 03:36:24;;;;;;;5.28;4.00;;;13.40;84.60;;;;;;5075882;28;20033;-59
2022/10/28 03:38:50;;;;;;;5.93;4.70;;;13.40;84.50;;;;;;5076465;28;20063;-59
2022/10/28 03:41:16;;;;;;;6.47;4.82;;;13.40;84.50;;;;;;5074593;28;20028;-59
2022/10/28 03:43:41;;;;;;;9.18;5.28;;;13.40;84.50;;;;;;5077883;28;20068;-60
2022/10/28 03:46:07;;;;;;;8.27;5.28;;;13.40;84.50;;;;;;5081699;28;20024;-58
2022/10/28 03:48:32;;;;;;;5.50;4.65;;;13.40;85.10;;;;;;5078479;28;20028;-58
2022/10/28 03:50:58;;;;;;;6.15;4.50;;;13.40;84.50;;;;;;5077857;28;20028;-59
2022/10/28 03:53:24;;;;;;;7.63;5.50;;;13.40;84.50;;;;;;5078230;28;20107;-59
2022/10/28 03:55:58;;;;;;;7.65;4.90;;;13.40;84.60;;;;;;5082344;28;20056;-59
2022/10/28 03:58:24;;;;;;;7.07;5.07;;;13.40;84.60;;;;;;5079128;28;20123;-59
2022/10/28 04:00:51;;;;;;;6.72;4.85;;;13.40;84.70;;;;;;5076566;28;20107;-60
2022/10/28 04:03:18;;;;;;;5.05;4.07;;;13.40;84.70;;;;;;5073307;28;20037;-59
2022/10/28 04:05:44;;;;;;;5.82;4.05;;;13.40;84.80;;;;;;5074410;28;20020;-60
2022/10/28 04:08:10;;;;;;;5.90;4.07;;;13.40;84.70;;;;;;5073386;28;20066;-60
2022/10/28 04:10:36;;;;;;;5.00;3.85;;;13.40;84.70;;;;;;5074223;28;20047;-58
2022/10/28 04:13:03;;;;;;;6.10;4.63;;;13.40;84.70;;;;;;5064284;28;20036;-59
2022/10/28 04:15:29;;;;;;;7.13;4.68;;;13.40;84.70;;;;;;5073230;28;20115;-59
2022/10/28 04:17:55;;;;;;;6.55;4.93;;;13.40;84.70;;;;;;5073402;28;20032;-58
2022/10/28 04:20:22;;;;;;;6.15;4.28;;;13.40;84.70;;;;;;5074113;28;20143;-58
2022/10/28 04:22:47;;;;;;;6.15;4.38;;;13.40;84.70;;;;;;5074170;28;20047;-59
2022/10/28 04:25:13;;;;;;;6.07;4.68;;;13.40;84.80;;;;;;5073994;28;20024;-58
2022/10/28 04:27:38;;;;;;;6.93;5.15;;;13.40;84.80;;;;;;5074378;28;20059;-59
2022/10/28 04:30:05;;;;;;;6.68;5.45;;;13.40;84.80;;;;;;5074490;28;20024;-59
2022/10/28 04:32:30;;;;;;;5.82;4.32;;;13.40;84.70;;;;;;5073186;28;20024;-60
2022/10/28 04:34:56;;;;;;;6.43;4.95;;;13.40;84.80;;;;;;5076924;28;20108;-59
2022/10/28 04:37:22;;;;;;;6.90;5.28;;;13.40;84.70;;;;;;5085197;28;20028;-59
2022/10/28 04:39:47;;;;;;;6.25;4.72;;;13.40;84.70;;;;;;5079314;28;20510;-61
2022/10/28 04:42:13;;;;;;;7.03;4.63;;;13.40;84.70;;;;;;5086332;28;20480;-59
2022/10/28 04:44:39;;;;;;;6.07;4.63;;;13.40;84.80;;;;;;5089182;28;20024;-58
2022/10/28 04:47:04;;;;;;;6.32;4.95;;;13.40;84.90;;;;;;5083171;28;20024;-58
2022/10/28 04:49:30;;;;;;;6.40;4.80;;;13.40;84.70;;;;;;5073616;28;20025;-58
2022/10/28 04:51:55;;;;;;;8.77;4.32;;;13.40;84.80;;;;;;5074641;28;20483;-60
2022/10/28 04:54:21;;;;;;;5.85;4.68;;;13.40;84.80;;;;;;5076162;28;20032;-59
2022/10/28 04:56:47;;;;;;;5.80;4.50;;;13.50;84.90;;;;;;5074169;28;20463;-59
2022/10/28 04:59:12;;;;;;;6.20;4.85;;;13.50;84.90;;;;;;5091896;28;20075;-59
2022/10/28 05:01:38;;;;;;;6.30;4.60;;;13.50;84.90;;;;;;5076331;28;20021;-59
2022/10/28 05:04:04;;;;;;;5.85;4.68;;;13.50;84.90;;;;;;5069977;28;20025;-58
2022/10/28 05:06:29;;;;;;;5.30;4.63;;;13.50;84.90;;;;;;5074227;28;20388;-59
2022/10/28 05:08:55;;;;;;;5.65;4.30;;;13.50;84.90;;;;;;5078338;28;20021;-58
2022/10/28 05:11:21;;;;;;;6.13;4.50;;;13.50;85.00;;;;;;5074874;28;20051;-58
2022/10/28 05:13:46;;;;;;;6.00;4.47;;;13.50;84.90;;;;;;5072165;28;20108;-60
2022/10/28 05:16:12;;;;;;;6.65;4.68;;;13.50;85.00;;;;;;5069060;28;20056;-59
2022/10/28 05:18:37;;;;;;;7.47;5.40;;;13.50;84.90;;;;;;5073532;28;20495;-58
2022/10/28 05:21:03;;;;;;;6.47;4.95;;;13.50;84.80;;;;;;5070302;28;24201;-59
2022/10/28 05:23:29;;;;;;;5.65;4.45;;;13.60;84.90;;;;;;5075119;28;20024;-58
2022/10/28 05:25:55;;;;;;;8.50;4.63;;;13.60;84.80;;;;;;5072590;28;20025;-60
2022/10/28 05:28:20;;;;;;;6.43;5.60;;;13.60;84.80;;;;;;5062281;28;20479;-59
2022/10/28 05:30:46;;;;;;;7.07;5.10;;;13.60;84.70;;;;;;5074608;28;20025;-60
2022/10/28 05:33:12;;;;;;;7.00;4.60;;;13.50;84.70;;;;;;5073429;28;20036;-60
2022/10/28 05:35:38;;;;;;;5.88;4.40;;;13.60;84.90;;;;;;5077839;28;20074;-59
2022/10/28 05:38:04;;;;;;;6.75;4.82;;;13.60;84.80;;;;;;5072747;28;20062;-59
2022/10/28 05:40:32;;;;;;;6.13;4.28;;;13.60;84.80;;;;;;5072459;28;20063;-59
2022/10/28 05:42:59;;;;;;;6.57;5.10;;;13.60;84.90;;;;;;5076903;28;20039;-58
2022/10/28 05:45:24;;;;;;;7.88;5.28;;;13.60;84.70;;;;;;5078775;28;20029;-58
2022/10/28 05:47:50;;;;;;;6.13;4.70;;;13.60;84.80;;;;;;5071882;28;20032;-58
2022/10/28 05:50:19;;;;;;;5.85;4.88;;;13.60;84.80;;;;;;5069439;28;20109;-59
2022/10/28 05:52:50;;;;;;;5.93;4.25;;;13.60;84.80;;;;;;5078978;28;20522;-59
2022/10/28 05:55:19;;;;;;;6.10;4.65;;;13.60;84.80;;;;;;5072889;28;20119;-59
2022/10/28 05:57:49;;;;;;;6.60;4.72;;;13.60;84.80;;;;;;5075615;28;20039;-59
2022/10/28 06:00:17;;;;;;;7.20;5.22;;;13.70;84.90;;;;;;5081473;28;20023;-59
2022/10/28 06:02:43;;;;;;;6.88;4.85;;;13.70;84.80;;;;;;5070843;28;20039;-59
2022/10/28 06:05:10;;;;;;;8.25;4.93;;;13.60;84.80;;;;;;5062500;28;20037;-59
2022/10/28 06:07:36;;;;;;;7.13;5.20;;;13.70;84.90;;;;;;5069646;28;20028;-58
2022/10/28 06:10:03;;;;;;;6.63;4.88;;;13.60;84.70;;;;;;5072158;28;20021;-59
2022/10/28 06:12:29;;;;;;;6.03;4.70;;;13.60;84.80;;;;;;5072388;28;20506;-59
2022/10/28 06:14:55;;;;;;;7.05;4.78;;;13.60;84.90;;;;;;5074795;28;20028;-61
2022/10/28 06:17:20;;;;;;;5.78;4.78;;;13.60;84.70;;;;;;5074932;28;20035;-60
2022/10/28 06:19:46;;;;;;;7.05;4.82;;;13.70;84.80;;;;;;5064253;28;20137;-59
2022/10/28 06:22:12;;;;;;;5.63;4.78;;;13.70;84.80;;;;;;5076066;28;20032;-60
2022/10/28 06:24:37;;;;;;;7.57;5.00;;;13.70;84.80;;;;;;5068304;28;20442;-60
2022/10/28 06:27:03;;;;;;;6.88;5.05;;;13.70;84.70;;;;;;5065752;28;20024;-61
2022/10/28 06:29:31;;;;;;;6.35;4.88;;;13.70;84.80;;;;;;5062255;28;20019;-59
2022/10/28 06:31:57;;;;;;;7.85;4.78;;;13.70;84.70;;;;;;5060178;28;20035;-60
2022/10/28 06:34:22;;;;;;;6.20;4.75;;;13.70;84.70;;;;;;5064114;28;20075;-60
2022/10/28 06:36:48;;;;;;;5.47;4.55;;;13.70;84.80;;;;;;5061191;28;20530;-59
2022/10/28 06:39:13;;;;;;;6.38;4.88;;;13.70;84.80;;;;;;5070595;28;20500;-59
2022/10/28 06:41:39;;;;;;;6.82;5.05;;;13.70;84.90;;;;;;5074565;28;20037;-58
2022/10/28 06:44:05;;;;;;;5.95;4.65;;;13.80;84.90;;;;;;5070220;28;20033;-61
2022/10/28 06:46:31;;;;;;;6.07;4.18;;;13.80;84.80;;;;;;5066213;28;20477;-59
2022/10/28 06:48:56;;;;;;;5.30;4.15;;;13.70;84.80;;;;;;5069334;28;20112;-59
2022/10/28 06:51:23;;;;;;;6.35;4.47;;;13.80;85.00;;;;;;5073291;28;20035;-58
2022/10/28 06:53:49;;;;;;;6.00;4.82;;;13.80;84.80;;;;;;5079976;28;20081;-60
2022/10/28 06:56:15;;;;;;;7.78;4.35;;;13.80;84.80;;;;;;5066461;28;20476;-60
2022/10/28 06:58:41;;;;;;;6.53;4.53;;;13.90;85.00;;;;;;5059783;28;20037;-59
2022/10/28 07:01:07;;;;;;;6.35;4.80;;;13.90;84.70;;;;;;5057852;28;20177;-58
2022/10/28 07:03:33;;;;;;;6.30;4.57;;;13.90;84.70;;;;;;5069104;28;20029;-58
2022/10/28 07:05:59;;;;;;;6.47;4.60;;;13.90;84.40;;;;;;5064528;28;20089;-59
2022/10/28 07:08:28;;;;;;;6.10;4.45;;;13.90;84.30;;;;;;5064311;28;20035;-59
2022/10/28 07:10:55;;;;;;;6.43;4.32;;;13.90;84.30;;;;;;5063386;28;20506;-58
2022/10/28 07:13:22;;;;;;;4.60;3.80;;;13.90;84.20;;;;;;5071263;28;21852;-61
2022/10/28 07:15:55;;;;;;;6.35;4.72;;;14.00;84.40;;;;;;5056791;28;20044;-59
2022/10/28 07:18:22;;;;;;;5.40;4.22;;;14.00;84.30;;;;;;5067127;28;20060;-60
2022/10/28 07:20:48;;;;;;;6.32;4.80;;;14.00;84.30;;;;;;5062591;28;20693;-59
2022/10/28 07:23:14;;;;;;;5.63;4.30;;;14.00;84.20;;;;;;5065623;28;20036;-60
2022/10/28 07:25:40;;;;;;;6.53;4.72;;;14.00;84.30;;;;;;5065368;28;20051;-59
2022/10/28 07:28:06;;;;;;;4.90;4.00;;;14.00;84.10;;;;;;5067437;28;20032;-61
2022/10/28 07:30:32;;;;;;;6.18;4.55;;;14.00;84.00;;;;;;5049462;28;20036;-60
2022/10/28 07:32:59;;;;;;;5.45;4.32;;;14.10;83.90;;;;;;5062920;28;20028;-59
2022/10/28 07:35:26;;;;;;;5.93;4.28;;;14.10;83.90;;;;;;5059149;28;20032;-59
2022/10/28 07:37:52;;;;;;;5.97;4.32;;;14.10;83.80;;;;;;5063832;28;20081;-60
2022/10/28 07:40:20;;;;;;;4.95;3.72;;;14.10;83.60;;;;;;5061179;28;20411;-60
2022/10/28 07:42:45;;;;;;;7.00;4.28;;;14.10;83.60;;;;;;5060202;28;20088;-60
2022/10/28 07:45:11;;;;;;;6.15;4.35;;;14.10;83.50;;;;;;5058737;28;20036;-58
2022/10/28 07:47:37;;;;;;;5.57;4.03;;;14.10;83.50;;;;;;5059545;28;20036;-59
2022/10/28 07:50:04;;;;;;;6.53;4.65;;;14.20;83.60;;;;;;5054402;28;20036;-60
2022/10/28 07:52:29;;;;;;;5.60;4.22;;;14.20;83.40;;;;;;5057124;28;20062;-60
2022/10/28 07:54:55;;;;;;;5.80;4.28;;;14.20;83.30;;;;;;5053918;28;20166;-60
2022/10/28 07:57:20;;;;;;;5.90;4.43;;;14.20;83.10;;;;;;5050463;28;20032;-60
2022/10/28 07:59:46;;;;;;;5.65;4.50;;;14.20;83.20;;;;;;5061693;28;21049;-60
2022/10/28 08:02:24;;;;;;;6.35;4.65;;;14.20;83.20;;;;;;5054160;28;20170;-60
2022/10/28 08:04:50;;;;;;;6.25;4.65;;;14.20;82.90;;;;;;5055339;28;20035;-60
2022/10/28 08:07:17;;;;;;;6.13;4.20;;;14.20;83.00;;;;;;5054932;28;20485;-59
2022/10/28 08:09:43;;;;;;;6.15;4.35;;;14.20;83.20;;;;;;5057204;28;20740;-59
2022/10/28 08:12:12;;;;;;;6.18;4.25;;;14.30;83.10;;;;;;5057285;28;20025;-59
2022/10/28 08:14:38;;;;;;;6.30;4.80;;;14.30;83.20;;;;;;5058400;28;20017;-60
2022/10/28 08:17:04;;;;;;;9.32;4.43;;;14.30;83.20;;;;;;5056150;28;20028;-60
2022/10/28 08:19:29;;;;;;;6.43;4.40;;;14.40;83.00;;;;;;5059175;28;20029;-59
2022/10/28 08:21:55;;;;;;;4.70;4.18;;;14.40;82.80;;;;;;5048388;28;20032;-60
2022/10/28 08:24:21;;;;;;;5.50;4.20;;;14.40;82.70;;;;;;5055565;28;20028;-60
2022/10/28 08:26:47;;;;;;;5.43;4.28;;;14.40;82.80;;;;;;5052489;28;20036;-60
2022/10/28 08:29:12;;;;;;;5.95;4.53;;;14.50;82.80;;;;;;5056587;28;20042;-60
2022/10/28 08:31:39;;;;;;;8.18;4.53;;;14.50;82.80;;;;;;5046153;28;20398;-60
2022/10/28 08:34:06;;;;;;;6.75;4.35;;;14.50;82.60;;;;;;5054817;28;20159;-60
2022/10/28 08:36:32;;;;;;;5.60;4.55;;;14.50;82.60;;;;;;5060286;28;20041;-59
2022/10/28 08:39:00;;;;;;;6.72;4.60;;;14.50;82.50;;;;;;5056796;28;20028;-60
2022/10/28 08:41:39;;;;;;;5.95;4.63;;;14.50;82.30;;;;;;5044939;28;20036;-60
2022/10/28 08:44:26;;;;;;;4.45;3.70;;;14.50;82.20;;;;;;5052900;28;20121;-60
2022/10/28 08:47:07;;;;;;;6.97;4.45;;;14.60;82.40;;;;;;5059916;28;20032;-60
2022/10/28 08:49:38;;;;;;;6.47;4.32;;;14.60;82.10;;;;;;5054860;28;20253;-60
2022/10/28 08:52:33;;;;;;;6.68;4.35;;;14.60;82.20;;;;;;5050828;28;20024;-60
2022/10/28 08:55:06;;;;;;;6.43;4.78;;;14.60;82.10;;;;;;5061196;28;20569;-60
2022/10/28 08:57:42;;;;;;;5.95;4.50;;;14.60;82.10;;;;;;5062997;28;20059;-60
2022/10/28 09:00:23;;;;;;;4.93;3.70;;;14.70;82.00;;;;;;5046078;28;20032;-60
2022/10/28 09:03:14;;;;;;;5.53;4.25;;;14.70;82.10;;;;;;5067734;28;20155;-59
2022/10/28 09:05:41;;;;;;;;;;;14.70;81.90;;;;;;5034726;28;20163;-59
2022/10/28 09:08:25;;;;;;;4.05;3.08;;;14.70;81.80;;;;;;5049860;28;20404;-59
2022/10/28 09:11:09;;;;;;;5.22;3.67;;;14.70;81.90;;;;;;5043371;28;20131;-58
2022/10/28 09:13:47;;;;;;;7.20;4.78;;;14.80;81.80;;;;;;5044291;28;20020;-59
2022/10/28 09:16:30;;;;;;;5.35;3.85;;;14.80;81.70;;;;;;5050102;28;20021;-60
2022/10/28 09:18:58;;;;;;;5.15;3.58;;;14.80;81.70;;;;;;5046263;28;20029;-61
2022/10/28 09:21:47;;;;;;;5.15;3.15;;;14.80;81.50;;;;;;5051938;28;20044;-58
2022/10/28 09:24:49;;;;;;;3.80;3.00;;;14.90;81.50;;;;;;5043057;28;20105;-59
2022/10/28 09:27:27;;;;;;;4.95;3.70;;;14.90;81.60;;;;;;5048465;28;20025;-58
2022/10/28 09:29:58;;;;;;;6.53;4.57;;;15.00;81.40;;;;;;5034370;28;20021;-57
2022/10/28 09:32:41;;;;;;;3.83;2.97;;;15.00;81.00;;;;;;5037615;28;20116;-60
2022/10/28 09:35:17;;;;;;;5.28;3.78;;;15.10;81.00;;;;;;5041729;28;20024;-60
2022/10/28 09:37:49;;;;;;;4.18;3.03;;;15.10;80.80;;;;;;5045401;28;20456;-60
2022/10/28 09:40:27;;;;;;;4.10;3.25;;;15.20;80.90;;;;;;5049570;28;22711;-58
2022/10/28 09:43:31;;;;;;;3.95;3.33;;;15.20;80.80;;;;;;5048699;28;20032;-58
2022/10/28 09:46:02;;;;;;;4.20;3.45;;;15.30;80.40;;;;;;5017675;28;22565;-59
2022/10/28 09:48:32;;;;;;;3.80;3.15;;;15.30;80.00;;;;;;5043475;28;20476;-59
2022/10/28 09:50:58;;;;;;;5.60;3.80;;;15.40;79.80;;;;;;5037853;28;20032;-58
2022/10/28 09:53:49;;;;;;;5.28;3.40;;;15.40;79.60;;;;;;5040117;28;20029;-60
2022/10/28 09:56:15;;;;;;;;;;;15.40;79.20;;;;;;5043044;28;20073;-60
2022/10/28 09:58:48;;;;;;;5.45;3.47;;;15.40;78.80;;;;;;5031799;28;20496;-59
2022/10/28 10:01:16;;;;;;;4.45;3.17;;;15.40;79.20;;;;;;5039511;28;20064;-60
2022/10/28 10:03:44;;;;;;;5.50;4.00;;;15.50;79.20;;;;;;5036309;28;20094;-61
2022/10/28 10:06:24;;;;;;;6.45;4.38;;;15.50;79.10;;;;;;5045023;28;20741;-61
2022/10/28 10:08:51;;;;;;;5.18;3.60;;;15.50;78.80;;;;;;5043693;28;20039;-60
2022/10/28 10:11:55;;;;;;;4.63;3.30;;;15.50;78.70;;;;;;5050103;28;20032;-61
2022/10/28 10:14:27;;;;;;;5.68;4.05;;;15.60;78.50;;;;;;5048294;28;20028;-58
2022/10/28 10:16:57;;;;;;;5.55;3.60;;;15.60;78.50;;;;;;5045768;28;20021;-58
2022/10/28 10:19:23;;;;;;;4.65;3.78;;;15.60;78.70;;;;;;5049211;28;20494;-61
2022/10/28 10:21:53;;;;;;;5.55;3.58;;;15.60;78.90;;;;;;5046432;28;20140;-59
2022/10/28 10:24:32;;;;;;;4.15;3.28;;;15.60;79.00;;;;;;5052735;28;20032;-61
2022/10/28 10:27:21;;;;;;;4.32;3.40;;;15.70;79.00;;;;;;5043830;28;20025;-60
2022/10/28 10:29:49;;;;;;;4.00;3.35;;;15.60;78.80;;;;;;5042527;28;20049;-61
2022/10/28 10:32:25;;;;;;;6.05;4.00;;;15.70;79.00;;;;;;5046148;28;20039;-60
2022/10/28 10:34:55;;;;;;;5.15;3.55;;;15.70;79.00;;;;;;5052206;28;20326;-62
2022/10/28 10:37:21;;;;;;;5.68;4.03;;;15.70;79.00;;;;;;5059473;28;20138;-61
2022/10/28 10:40:19;;;;;;;5.90;4.28;;;15.70;79.10;;;;;;5059833;28;20056;-61
2022/10/28 10:42:45;;;;;;;4.78;3.60;;;15.80;79.10;;;;;;5054310;28;20039;-61
2022/10/28 10:45:24;;;;;;;5.35;3.95;;;15.80;79.10;;;;;;5048036;28;20040;-61
2022/10/28 10:48:06;;;;;;;6.00;4.18;;;15.80;79.00;;;;;;5047577;28;20828;-61
2022/10/28 10:50:32;;;;;;;5.35;4.25;;;15.80;79.10;;;;;;5050381;28;20024;-60
2022/10/28 10:53:00;;;;;;;7.68;4.28;;;15.80;79.10;;;;;;5046081;28;20028;-61
2022/10/28 10:55:33;;;;;;;6.22;4.50;;;15.80;79.00;;;;;;5046687;28;20546;-60
2022/10/28 10:58:00;;;;;;;5.50;4.05;;;15.80;79.00;;;;;;5046898;28;20032;-61
2022/10/28 11:00:44;;;;;;;5.07;4.10;;;15.80;79.10;;;;;;5049857;28;20493;-59
2022/10/28 11:03:19;;;;;;;4.63;3.63;;;15.80;79.20;;;;;;5045583;28;20036;-59
2022/10/28 11:05:53;;;;;;;5.30;4.30;;;15.80;79.20;;;;;;5043471;28;20053;-60
2022/10/28 11:08:37;;;;;;;5.97;4.50;;;15.80;79.00;;;;;;5041744;28;20055;-60
2022/10/28 11:11:11;;;;;;;6.18;4.40;;;15.80;78.90;;;;;;5040673;28;20036;-59
2022/10/28 11:13:37;;;;;;;5.68;4.53;;;15.80;79.00;;;;;;5046172;28;20861;-59
2022/10/28 11:16:06;;;;;;;6.43;4.47;;;15.70;78.90;;;;;;5046781;28;20040;-58
2022/10/28 11:18:44;;;;;;;5.03;3.95;;;15.70;78.70;;;;;;5041392;28;20116;-58
2022/10/28 11:21:15;;;;;;;5.15;4.13;;;15.70;78.70;;;;;;5042326;28;20438;-59
2022/10/28 11:23:53;;;;;;;5.32;4.10;;;15.70;78.70;;;;;;5037347;28;20490;-59
2022/10/28 11:26:21;;;;;;;6.15;4.47;;;15.70;78.80;;;;;;5047593;28;20028;-59
2022/10/28 11:29:03;;;;;;;6.07;4.10;;;15.70;78.80;;;;;;5041691;28;20025;-60
2022/10/28 11:31:44;;;;;;;5.00;4.00;;;15.70;78.80;;;;;;5044181;28;20412;-58
2022/10/28 11:34:41;;;;;;;5.53;4.15;;;15.70;78.60;;;;;;5049544;28;20434;-61
2022/10/28 11:37:16;;;;;;;7.07;4.57;;;15.70;78.70;;;;;;5051434;28;20118;-60
2022/10/28 11:40:01;;;;;;;7.00;4.88;;;15.70;78.50;;;;;;5044120;28;20056;-60
2022/10/28 11:42:46;;;;;;;6.03;4.75;;;15.70;78.30;;;;;;5051085;28;20033;-57
2022/10/28 11:45:34;;;;;;;5.35;3.70;;;15.70;78.30;;;;;;5049083;28;20024;-59
2022/10/28 11:48:11;;;;;;;5.10;4.10;;;15.70;78.40;;;;;;5041513;28;20068;-60
2022/10/28 11:51:06;;;;;;;5.57;4.28;;;15.70;78.20;;;;;;5042048;28;20071;-59
2022/10/28 11:53:52;;;;;;;5.32;3.88;;;15.70;78.20;;;;;;5042677;28;20054;-61
2022/10/28 11:56:40;;;;;;;5.68;4.20;;;15.70;78.10;;;;;;5029522;28;20041;-59
2022/10/28 11:59:12;;;;;;;6.25;4.45;;;15.70;78.10;;;;;;5014163;28;20028;-59
2022/10/28 12:02:14;;;;;;;5.03;3.80;;;15.70;78.10;;;;;;5015153;28;20115;-60
2022/10/28 12:05:03;;;;;;;5.22;3.90;;;15.70;78.50;;;;;;5022786;28;20047;-60
2022/10/28 12:08:01;;;;;;;4.30;3.22;;;15.70;77.90;;;;;;5023498;28;20033;-59
2022/10/28 12:10:48;;;;;;;5.15;3.90;;;15.70;77.80;;;;;;5014597;28;20050;-60
2022/10/28 12:13:38;;;;;;;3.95;3.30;;;15.70;77.80;;;;;;5024160;28;20075;-59
2022/10/28 12:16:14;;;;;;;6.38;4.15;;;15.70;77.70;;;;;;5019289;28;20060;-60
2022/10/28 12:18:55;;;;;;;5.65;3.38;;;15.80;77.70;;;;;;5021465;28;20048;-59
2022/10/28 12:21:31;;;;;;;4.97;3.88;;;15.80;77.60;;;;;;5034171;28;22015;-60
2022/10/28 12:23:58;;;;;;;4.65;3.55;;;15.90;77.60;;;;;;5025367;28;20047;-61
2022/10/28 12:26:34;;;;;;;4.00;3.03;;;15.90;77.50;;;;;;5031349;28;20029;-60
2022/10/28 12:29:04;;;;;;;3.95;2.97;;;15.90;77.30;;;;;;5024940;28;20118;-59
2022/10/28 12:31:42;;;;;;;4.35;3.22;;;16.00;77.40;;;;;;5019729;28;20031;-59
2022/10/28 12:34:15;;;;;;;4.78;3.38;;;16.00;77.10;;;;;;5015442;28;20033;-59
2022/10/28 12:36:47;;;;;;;4.20;3.15;;;16.00;77.00;;;;;;5021394;28;20456;-58
2022/10/28 12:39:38;;;;;;;4.47;3.00;;;16.00;76.80;;;;;;5028156;28;20392;-59
2022/10/28 12:42:19;;;;;;;3.58;3.00;;;16.10;76.70;;;;;;5026202;28;20083;-59
2022/10/28 12:44:46;;;;;;;5.22;3.40;;;16.10;76.50;;;;;;5022363;28;20033;-58
2022/10/28 12:47:33;;;;;;;5.07;3.53;;;16.10;76.30;;;;;;5025832;28;20174;-57
2022/10/28 12:50:07;;;;;;;4.93;3.55;;;16.10;76.00;;;;;;5024378;28;20783;-58
2022/10/28 12:53:14;;;;;;;4.38;3.53;;;16.10;75.50;;;;;;5028432;28;20671;-58
2022/10/28 12:55:59;;;;;;;4.03;3.30;;;16.00;75.30;;;;;;5035422;28;20032;-60
2022/10/28 12:58:27;;;;;;;5.07;3.85;;;16.00;75.30;;;;;;5048579;28;20115;-59
2022/10/28 13:01:09;;;;;;;4.57;3.60;;;16.00;75.30;;;;;;5041926;28;20163;-61
2022/10/28 13:03:34;;;;;;;;;;;16.00;75.30;;;;;;5042422;28;20086;-60
2022/10/28 13:06:03;;;;;;;3.70;2.88;;;15.90;75.40;;;;;;5041829;28;19917;-61
2022/10/28 13:09:00;;;;;;;3.97;3.17;;;15.90;75.20;;;;;;5046763;28;20072;-60
2022/10/28 13:11:57;;;;;;;3.53;2.88;;;15.80;75.20;;;;;;5032033;28;20036;-61
2022/10/28 13:14:25;;;;;;;2.67;2.47;;;15.80;75.20;;;;;;5044219;28;20059;-59